Ayr, North Dakota
Current Conditions -  °F | °C
As of 7:15 AM on Friday 28 Nov 2014 (Local Time) from KBAC Reporting Station
Light Snow Light Snow  
Wind Chill: -20°   Ceiling: 600
Heat Index: -13°   Visibility: 9mi
Dew Point: -15°   Wind: 9mph
Humidity: 85%   Direction: 120°ESE
Pressure: 29.9"   Gusts: NA
Location:  47.04°N, 97.49°W
Report Text: KBAC 281315Z AUTO 12008KT 9SM -SN OVC006 M13/M15 A2990 RMK AO2
Loading
Personal Weather Stations






























Interactive Weather Map New forecast layout! Learn more

10-Day Weather Forecast

Advertisements
Track Severe Weather on mobile